sensor_id;sensor_type;location;lat;lon;timestamp;P1;durP1;ratioP1;P2;durP2;ratioP2
11088;SDS011;5598;48.648;8.908;2022-12-20T00:01:05;10.67;;;7.63;;
11088;SDS011;5598;48.648;8.908;2022-12-20T00:03:32;14.03;;;9.33;;
11088;SDS011;5598;48.648;8.908;2022-12-20T00:05:59;6.97;;;3.37;;
11088;SDS011;5598;48.648;8.908;2022-12-20T00:08:27;5.93;;;2.73;;
11088;SDS011;5598;48.648;8.908;2022-12-20T00:10:54;11.07;;;6.20;;
11088;SDS011;5598;48.648;8.908;2022-12-20T00:13:21;4.83;;;2.63;;
11088;SDS011;5598;48.648;8.908;2022-12-20T00:15:47;14.90;;;7.60;;
11088;SDS011;5598;48.648;8.908;2022-12-20T00:18:14;5.07;;;3.50;;
11088;SDS011;5598;48.648;8.908;2022-12-20T00:20:41;16.40;;;9.47;;
11088;SDS011;5598;48.648;8.908;2022-12-20T00:23:08;15.83;;;9.63;;
11088;SDS011;5598;48.648;8.908;2022-12-20T00:25:36;12.60;;;6.40;;
11088;SDS011;5598;48.648;8.908;2022-12-20T00:28:03;4.63;;;2.93;;
11088;SDS011;5598;48.648;8.908;2022-12-20T00:30:30;10.77;;;7.57;;
11088;SDS011;5598;48.648;8.908;2022-12-20T00:32:56;12.70;;;7.27;;
11088;SDS011;5598;48.648;8.908;2022-12-20T00:35:23;6.60;;;3.63;;
11088;SDS011;5598;48.648;8.908;2022-12-20T00:37:50;4.93;;;3.50;;
11088;SDS011;5598;48.648;8.908;2022-12-20T00:40:17;6.30;;;3.60;;
11088;SDS011;5598;48.648;8.908;2022-12-20T00:42:45;8.37;;;4.50;;
11088;SDS011;5598;48.648;8.908;2022-12-20T00:45:12;15.53;;;8.80;;
11088;SDS011;5598;48.648;8.908;2022-12-20T00:47:39;5.73;;;3.13;;
11088;SDS011;5598;48.648;8.908;2022-12-20T00:50:06;10.37;;;5.97;;
11088;SDS011;5598;48.648;8.908;2022-12-20T00:52:33;10.70;;;7.03;;
11088;SDS011;5598;48.648;8.908;2022-12-20T00:55:00;13.07;;;9.33;;
11088;SDS011;5598;48.648;8.908;2022-12-20T00:57:27;14.30;;;8.97;;
11088;SDS011;5598;48.648;8.908;2022-12-20T00:59:55;12.33;;;8.40;;
11088;SDS011;5598;48.648;8.908;2022-12-20T01:02:21;8.20;;;5.53;;
11088;SDS011;5598;48.648;8.908;2022-12-20T01:04:48;10.90;;;9.17;;
11088;SDS011;5598;48.648;8.908;2022-12-20T01:07:15;11.70;;;8.17;;
11088;SDS011;5598;48.648;8.908;2022-12-20T01:09:42;11.27;;;6.23;;
11088;SDS011;5598;48.648;8.908;2022-12-20T01:12:08;4.27;;;2.30;;
11088;SDS011;5598;48.648;8.908;2022-12-20T01:14:35;7.93;;;3.17;;
11088;SDS011;5598;48.648;8.908;2022-12-20T01:17:04;6.13;;;3.57;;
11088;SDS011;5598;48.648;8.908;2022-12-20T01:19:31;7.43;;;5.57;;
11088;SDS011;5598;48.648;8.908;2022-12-20T01:21:58;4.57;;;2.40;;
11088;SDS011;5598;48.648;8.908;2022-12-20T01:24:25;4.53;;;3.20;;
11088;SDS011;5598;48.648;8.908;2022-12-20T01:26:51;5.60;;;3.97;;
11088;SDS011;5598;48.648;8.908;2022-12-20T01:29:18;6.13;;;3.57;;
11088;SDS011;5598;48.648;8.908;2022-12-20T01:31:45;6.10;;;4.10;;
11088;SDS011;5598;48.648;8.908;2022-12-20T01:34:13;6.73;;;4.77;;
11088;SDS011;5598;48.648;8.908;2022-12-20T01:36:40;3.23;;;2.17;;
11088;SDS011;5598;48.648;8.908;2022-12-20T01:39:07;13.40;;;8.73;;
11088;SDS011;5598;48.648;8.908;2022-12-20T01:41:37;13.53;;;8.70;;
11088;SDS011;5598;48.648;8.908;2022-12-20T01:44:05;14.93;;;8.70;;
11088;SDS011;5598;48.648;8.908;2022-12-20T01:46:52;10.17;;;5.00;;
11088;SDS011;5598;48.648;8.908;2022-12-20T01:49:22;2.13;;;1.40;;
11088;SDS011;5598;48.648;8.908;2022-12-20T01:51:54;6.33;;;3.47;;
11088;SDS011;5598;48.648;8.908;2022-12-20T01:54:28;10.27;;;5.47;;
11088;SDS011;5598;48.648;8.908;2022-12-20T01:56:58;11.53;;;7.43;;
11088;SDS011;5598;48.648;8.908;2022-12-20T01:59:28;4.50;;;3.33;;
11088;SDS011;5598;48.648;8.908;2022-12-20T02:01:58;7.23;;;3.83;;
11088;SDS011;5598;48.648;8.908;2022-12-20T02:04:31;9.73;;;6.50;;
11088;SDS011;5598;48.648;8.908;2022-12-20T02:06:58;9.03;;;4.43;;
11088;SDS011;5598;48.648;8.908;2022-12-20T02:09:25;6.80;;;4.70;;
11088;SDS011;5598;48.648;8.908;2022-12-20T02:11:56;14.43;;;7.13;;
11088;SDS011;5598;48.648;8.908;2022-12-20T02:14:35;5.03;;;2.80;;
11088;SDS011;5598;48.648;8.908;2022-12-20T02:17:17;1.77;;;0.77;;
11088;SDS011;5598;48.648;8.908;2022-12-20T02:20:06;6.40;;;4.47;;
11088;SDS011;5598;48.648;8.908;2022-12-20T02:23:07;7.47;;;4.93;;
11088;SDS011;5598;48.648;8.908;2022-12-20T02:25:52;6.67;;;3.50;;
11088;SDS011;5598;48.648;8.908;2022-12-20T02:28:50;12.27;;;9.73;;
11088;SDS011;5598;48.648;8.908;2022-12-20T02:31:37;9.83;;;6.23;;
11088;SDS011;5598;48.648;8.908;2022-12-20T02:34:07;13.60;;;10.57;;
11088;SDS011;5598;48.648;8.908;2022-12-20T02:36:35;8.00;;;5.37;;
11088;SDS011;5598;48.648;8.908;2022-12-20T02:39:03;7.53;;;5.30;;
11088;SDS011;5598;48.648;8.908;2022-12-20T02:41:31;13.33;;;8.67;;
11088;SDS011;5598;48.648;8.908;2022-12-20T02:44:01;12.53;;;8.20;;
11088;SDS011;5598;48.648;8.908;2022-12-20T02:46:49;1.40;;;1.23;;
11088;SDS011;5598;48.648;8.908;2022-12-20T02:49:18;13.23;;;9.57;;
11088;SDS011;5598;48.648;8.908;2022-12-20T02:51:48;5.23;;;2.87;;
11088;SDS011;5598;48.648;8.908;2022-12-20T02:54:18;15.90;;;9.97;;
11088;SDS011;5598;48.648;8.908;2022-12-20T02:56:46;6.30;;;3.00;;
11088;SDS011;5598;48.648;8.908;2022-12-20T02:59:18;15.03;;;10.17;;
11088;SDS011;5598;48.648;8.908;2022-12-20T03:01:50;15.73;;;12.53;;
11088;SDS011;5598;48.648;8.908;2022-12-20T03:04:19;15.80;;;10.83;;
11088;SDS011;5598;48.648;8.908;2022-12-20T03:06:56;13.13;;;7.77;;
11088;SDS011;5598;48.648;8.908;2022-12-20T03:09:24;9.50;;;6.33;;
11088;SDS011;5598;48.648;8.908;2022-12-20T03:11:50;7.80;;;5.23;;
11088;SDS011;5598;48.648;8.908;2022-12-20T03:14:18;2.43;;;1.77;;
11088;SDS011;5598;48.648;8.908;2022-12-20T03:16:45;8.77;;;5.57;;
11088;SDS011;5598;48.648;8.908;2022-12-20T03:19:13;3.50;;;2.97;;
11088;SDS011;5598;48.648;8.908;2022-12-20T03:21:40;9.70;;;5.90;;
11088;SDS011;5598;48.648;8.908;2022-12-20T03:24:07;7.00;;;5.37;;
11088;SDS011;5598;48.648;8.908;2022-12-20T03:26:37;12.00;;;9.50;;
11088;SDS011;5598;48.648;8.908;2022-12-20T03:29:04;14.80;;;10.97;;
11088;SDS011;5598;48.648;8.908;2022-12-20T03:31:31;10.57;;;7.10;;
11088;SDS011;5598;48.648;8.908;2022-12-20T03:33:58;10.43;;;8.63;;
11088;SDS011;5598;48.648;8.908;2022-12-20T03:36:26;8.60;;;4.63;;
11088;SDS011;5598;48.648;8.908;2022-12-20T03:38:53;11.47;;;7.13;;
11088;SDS011;5598;48.648;8.908;2022-12-20T03:41:21;6.93;;;3.90;;
11088;SDS011;5598;48.648;8.908;2022-12-20T03:43:49;13.07;;;8.90;;
11088;SDS011;5598;48.648;8.908;2022-12-20T03:46:15;5.43;;;3.67;;
11088;SDS011;5598;48.648;8.908;2022-12-20T03:48:42;5.63;;;2.27;;
11088;SDS011;5598;48.648;8.908;2022-12-20T03:51:09;2.53;;;0.97;;
11088;SDS011;5598;48.648;8.908;2022-12-20T03:53:38;3.20;;;2.20;;
11088;SDS011;5598;48.648;8.908;2022-12-20T03:56:05;3.13;;;2.27;;
11088;SDS011;5598;48.648;8.908;2022-12-20T03:58:32;0.40;;;0.40;;
11088;SDS011;5598;48.648;8.908;2022-12-20T04:00:59;1.07;;;0.83;;
11088;SDS011;5598;48.648;8.908;2022-12-20T04:03:25;4.03;;;1.43;;
11088;SDS011;5598;48.648;8.908;2022-12-20T04:05:52;4.87;;;3.57;;
11088;SDS011;5598;48.648;8.908;2022-12-20T04:08:19;7.87;;;4.50;;
11088;SDS011;5598;48.648;8.908;2022-12-20T04:10:47;10.80;;;5.73;;
11088;SDS011;5598;48.648;8.908;2022-12-20T04:13:31;7.87;;;5.47;;
11088;SDS011;5598;48.648;8.908;2022-12-20T04:15:58;14.63;;;7.87;;
11088;SDS011;5598;48.648;8.908;2022-12-20T04:18:25;3.30;;;2.57;;
11088;SDS011;5598;48.648;8.908;2022-12-20T04:20:52;7.57;;;4.10;;
11088;SDS011;5598;48.648;8.908;2022-12-20T04:23:19;6.17;;;4.13;;
11088;SDS011;5598;48.648;8.908;2022-12-20T04:25:47;0.07;;;0.07;;
11088;SDS011;5598;48.648;8.908;2022-12-20T04:28:14;8.17;;;4.60;;
11088;SDS011;5598;48.648;8.908;2022-12-20T04:30:41;0.63;;;0.60;;
11088;SDS011;5598;48.648;8.908;2022-12-20T04:33:08;0.00;;;0.00;;
11088;SDS011;5598;48.648;8.908;2022-12-20T04:35:35;2.20;;;1.83;;
11088;SDS011;5598;48.648;8.908;2022-12-20T04:38:01;0.77;;;0.53;;
11088;SDS011;5598;48.648;8.908;2022-12-20T04:40:29;0.60;;;0.60;;
11088;SDS011;5598;48.648;8.908;2022-12-20T04:42:57;1.27;;;1.20;;
11088;SDS011;5598;48.648;8.908;2022-12-20T04:45:23;7.20;;;4.90;;
11088;SDS011;5598;48.648;8.908;2022-12-20T04:47:50;10.60;;;7.20;;
11088;SDS011;5598;48.648;8.908;2022-12-20T04:50:17;6.30;;;3.97;;
11088;SDS011;5598;48.648;8.908;2022-12-20T04:52:44;10.83;;;5.00;;
11088;SDS011;5598;48.648;8.908;2022-12-20T04:55:28;9.10;;;6.53;;
11088;SDS011;5598;48.648;8.908;2022-12-20T04:57:56;8.87;;;6.40;;
11088;SDS011;5598;48.648;8.908;2022-12-20T05:00:23;0.93;;;0.90;;
11088;SDS011;5598;48.648;8.908;2022-12-20T05:02:50;0.97;;;0.93;;
11088;SDS011;5598;48.648;8.908;2022-12-20T05:05:17;3.00;;;2.60;;
11088;SDS011;5598;48.648;8.908;2022-12-20T05:07:44;2.37;;;2.13;;
11088;SDS011;5598;48.648;8.908;2022-12-20T05:10:11;4.03;;;2.77;;
11088;SDS011;5598;48.648;8.908;2022-12-20T05:12:38;5.27;;;1.63;;
11088;SDS011;5598;48.648;8.908;2022-12-20T05:15:06;4.47;;;3.10;;
11088;SDS011;5598;48.648;8.908;2022-12-20T05:17:34;4.57;;;3.20;;
11088;SDS011;5598;48.648;8.908;2022-12-20T05:20:00;3.37;;;1.87;;
11088;SDS011;5598;48.648;8.908;2022-12-20T05:22:27;1.93;;;1.60;;
11088;SDS011;5598;48.648;8.908;2022-12-20T05:25:09;1.23;;;0.83;;
11088;SDS011;5598;48.648;8.908;2022-12-20T05:27:54;7.33;;;3.53;;
11088;SDS011;5598;48.648;8.908;2022-12-20T05:30:23;10.47;;;5.47;;
11088;SDS011;5598;48.648;8.908;2022-12-20T05:32:50;8.17;;;5.50;;
11088;SDS011;5598;48.648;8.908;2022-12-20T05:35:17;2.37;;;2.20;;
11088;SDS011;5598;48.648;8.908;2022-12-20T05:37:45;3.97;;;2.23;;
11088;SDS011;5598;48.648;8.908;2022-12-20T05:40:12;6.47;;;4.03;;
11088;SDS011;5598;48.648;8.908;2022-12-20T05:42:40;4.60;;;1.97;;
11088;SDS011;5598;48.648;8.908;2022-12-20T05:45:07;6.00;;;3.57;;
11088;SDS011;5598;48.648;8.908;2022-12-20T05:47:36;0.87;;;0.80;;
11088;SDS011;5598;48.648;8.908;2022-12-20T05:50:03;5.20;;;3.17;;
11088;SDS011;5598;48.648;8.908;2022-12-20T05:52:31;5.40;;;3.40;;
11088;SDS011;5598;48.648;8.908;2022-12-20T05:54:57;3.73;;;1.97;;
11088;SDS011;5598;48.648;8.908;2022-12-20T05:57:24;6.47;;;4.63;;
11088;SDS011;5598;48.648;8.908;2022-12-20T05:59:51;6.23;;;3.77;;
11088;SDS011;5598;48.648;8.908;2022-12-20T06:02:18;6.57;;;4.50;;
11088;SDS011;5598;48.648;8.908;2022-12-20T06:04:46;5.43;;;3.93;;
11088;SDS011;5598;48.648;8.908;2022-12-20T06:07:13;5.40;;;3.60;;
11088;SDS011;5598;48.648;8.908;2022-12-20T06:09:40;5.33;;;3.00;;
11088;SDS011;5598;48.648;8.908;2022-12-20T06:12:07;5.33;;;4.10;;
11088;SDS011;5598;48.648;8.908;2022-12-20T06:14:33;8.07;;;4.07;;
11088;SDS011;5598;48.648;8.908;2022-12-20T06:17:00;5.40;;;3.83;;
11088;SDS011;5598;48.648;8.908;2022-12-20T06:19:27;7.63;;;4.67;;
11088;SDS011;5598;48.648;8.908;2022-12-20T06:21:55;3.90;;;2.33;;
11088;SDS011;5598;48.648;8.908;2022-12-20T06:24:22;5.20;;;3.97;;
11088;SDS011;5598;48.648;8.908;2022-12-20T06:26:51;6.77;;;4.17;;
11088;SDS011;5598;48.648;8.908;2022-12-20T06:29:18;9.90;;;4.80;;
11088;SDS011;5598;48.648;8.908;2022-12-20T06:31:45;5.10;;;2.97;;
11088;SDS011;5598;48.648;8.908;2022-12-20T06:34:11;5.07;;;3.13;;
11088;SDS011;5598;48.648;8.908;2022-12-20T06:36:38;5.47;;;3.07;;
11088;SDS011;5598;48.648;8.908;2022-12-20T06:41:58;5.13;;;2.63;;
11088;SDS011;5598;48.648;8.908;2022-12-20T06:44:25;5.97;;;3.57;;
11088;SDS011;5598;48.648;8.908;2022-12-20T06:46:51;9.27;;;2.37;;
11088;SDS011;5598;48.648;8.908;2022-12-20T06:49:18;8.53;;;4.60;;
11088;SDS011;5598;48.648;8.908;2022-12-20T06:51:46;6.63;;;4.47;;
11088;SDS011;5598;48.648;8.908;2022-12-20T06:54:13;3.73;;;2.47;;
11088;SDS011;5598;48.648;8.908;2022-12-20T06:56:41;5.30;;;4.00;;
11088;SDS011;5598;48.648;8.908;2022-12-20T06:59:08;1.47;;;0.80;;
11088;SDS011;5598;48.648;8.908;2022-12-20T07:01:35;8.23;;;4.17;;
11088;SDS011;5598;48.648;8.908;2022-12-20T07:04:02;2.27;;;1.33;;
11088;SDS011;5598;48.648;8.908;2022-12-20T07:06:29;2.30;;;1.90;;
11088;SDS011;5598;48.648;8.908;2022-12-20T07:08:56;5.40;;;2.80;;
11088;SDS011;5598;48.648;8.908;2022-12-20T07:11:23;4.43;;;1.27;;
11088;SDS011;5598;48.648;8.908;2022-12-20T07:13:54;6.17;;;3.97;;
11088;SDS011;5598;48.648;8.908;2022-12-20T07:16:21;1.37;;;1.23;;
11088;SDS011;5598;48.648;8.908;2022-12-20T07:18:48;4.87;;;2.87;;
11088;SDS011;5598;48.648;8.908;2022-12-20T07:21:17;3.37;;;2.27;;
11088;SDS011;5598;48.648;8.908;2022-12-20T07:23:45;3.10;;;1.80;;
11088;SDS011;5598;48.648;8.908;2022-12-20T07:26:13;5.67;;;3.50;;
11088;SDS011;5598;48.648;8.908;2022-12-20T07:28:41;8.07;;;5.57;;
11088;SDS011;5598;48.648;8.908;2022-12-20T07:31:10;9.23;;;1.70;;
11088;SDS011;5598;48.648;8.908;2022-12-20T07:33:37;1.10;;;1.07;;
11088;SDS011;5598;48.648;8.908;2022-12-20T07:36:04;7.20;;;4.23;;
11088;SDS011;5598;48.648;8.908;2022-12-20T07:38:32;4.50;;;2.37;;
11088;SDS011;5598;48.648;8.908;2022-12-20T07:41:00;8.07;;;4.00;;
11088;SDS011;5598;48.648;8.908;2022-12-20T07:43:31;4.03;;;3.03;;
11088;SDS011;5598;48.648;8.908;2022-12-20T07:45:58;4.53;;;3.50;;
11088;SDS011;5598;48.648;8.908;2022-12-20T07:48:26;10.07;;;5.27;;
11088;SDS011;5598;48.648;8.908;2022-12-20T07:50:55;4.97;;;2.70;;
11088;SDS011;5598;48.648;8.908;2022-12-20T07:53:26;4.97;;;3.40;;
11088;SDS011;5598;48.648;8.908;2022-12-20T07:55:56;4.00;;;2.60;;
11088;SDS011;5598;48.648;8.908;2022-12-20T07:58:25;3.70;;;2.47;;
11088;SDS011;5598;48.648;8.908;2022-12-20T08:00:54;4.67;;;3.43;;
11088;SDS011;5598;48.648;8.908;2022-12-20T08:03:22;5.20;;;3.33;;
11088;SDS011;5598;48.648;8.908;2022-12-20T08:05:55;2.73;;;1.93;;
11088;SDS011;5598;48.648;8.908;2022-12-20T08:08:27;3.30;;;1.93;;
11088;SDS011;5598;48.648;8.908;2022-12-20T08:10:55;2.43;;;1.50;;
11088;SDS011;5598;48.648;8.908;2022-12-20T08:13:21;6.43;;;3.53;;
11088;SDS011;5598;48.648;8.908;2022-12-20T08:15:48;0.77;;;0.77;;
11088;SDS011;5598;48.648;8.908;2022-12-20T08:18:15;4.53;;;3.10;;
11088;SDS011;5598;48.648;8.908;2022-12-20T08:20:42;8.37;;;2.00;;
11088;SDS011;5598;48.648;8.908;2022-12-20T08:23:10;0.43;;;0.43;;
11088;SDS011;5598;48.648;8.908;2022-12-20T08:25:37;6.30;;;2.53;;
11088;SDS011;5598;48.648;8.908;2022-12-20T08:28:04;1.90;;;1.67;;
11088;SDS011;5598;48.648;8.908;2022-12-20T08:30:30;2.40;;;1.77;;
11088;SDS011;5598;48.648;8.908;2022-12-20T08:32:57;2.63;;;1.43;;
11088;SDS011;5598;48.648;8.908;2022-12-20T08:35:24;3.97;;;2.63;;
11088;SDS011;5598;48.648;8.908;2022-12-20T08:37:51;6.10;;;2.73;;
11088;SDS011;5598;48.648;8.908;2022-12-20T08:40:19;4.43;;;2.87;;
11088;SDS011;5598;48.648;8.908;2022-12-20T08:42:46;3.57;;;2.80;;
11088;SDS011;5598;48.648;8.908;2022-12-20T08:45:13;2.13;;;1.80;;
11088;SDS011;5598;48.648;8.908;2022-12-20T08:47:40;0.40;;;0.40;;
11088;SDS011;5598;48.648;8.908;2022-12-20T08:50:07;2.40;;;1.33;;
11088;SDS011;5598;48.648;8.908;2022-12-20T08:52:34;1.27;;;1.10;;
11088;SDS011;5598;48.648;8.908;2022-12-20T08:55:01;6.67;;;3.50;;
11088;SDS011;5598;48.648;8.908;2022-12-20T08:57:29;3.77;;;2.67;;
11088;SDS011;5598;48.648;8.908;2022-12-20T08:59:56;4.90;;;3.80;;
11088;SDS011;5598;48.648;8.908;2022-12-20T09:02:23;4.30;;;2.37;;
11088;SDS011;5598;48.648;8.908;2022-12-20T09:04:49;2.50;;;1.73;;
11088;SDS011;5598;48.648;8.908;2022-12-20T09:07:16;5.00;;;3.70;;
11088;SDS011;5598;48.648;8.908;2022-12-20T09:09:43;1.60;;;1.13;;
11088;SDS011;5598;48.648;8.908;2022-12-20T09:12:11;6.40;;;3.63;;
11088;SDS011;5598;48.648;8.908;2022-12-20T09:14:39;2.43;;;2.23;;
11088;SDS011;5598;48.648;8.908;2022-12-20T09:17:06;6.53;;;3.87;;
11088;SDS011;5598;48.648;8.908;2022-12-20T09:19:33;2.67;;;2.13;;
11088;SDS011;5598;48.648;8.908;2022-12-20T09:22:00;4.87;;;3.37;;
11088;SDS011;5598;48.648;8.908;2022-12-20T09:24:27;4.73;;;2.47;;
11088;SDS011;5598;48.648;8.908;2022-12-20T09:26:54;5.40;;;1.77;;
11088;SDS011;5598;48.648;8.908;2022-12-20T09:29:21;6.80;;;1.07;;
11088;SDS011;5598;48.648;8.908;2022-12-20T09:31:49;1.80;;;1.33;;
11088;SDS011;5598;48.648;8.908;2022-12-20T09:34:16;4.80;;;2.23;;
11088;SDS011;5598;48.648;8.908;2022-12-20T09:36:42;2.50;;;2.07;;
11088;SDS011;5598;48.648;8.908;2022-12-20T09:39:10;4.23;;;2.57;;
11088;SDS011;5598;48.648;8.908;2022-12-20T09:41:38;2.47;;;1.00;;
11088;SDS011;5598;48.648;8.908;2022-12-20T09:44:09;4.00;;;1.73;;
11088;SDS011;5598;48.648;8.908;2022-12-20T09:46:39;4.63;;;3.17;;
11088;SDS011;5598;48.648;8.908;2022-12-20T09:49:10;5.03;;;2.67;;
11088;SDS011;5598;48.648;8.908;2022-12-20T09:54:30;2.77;;;1.73;;
11088;SDS011;5598;48.648;8.908;2022-12-20T09:57:06;1.47;;;1.37;;
11088;SDS011;5598;48.648;8.908;2022-12-20T09:59:44;1.20;;;1.10;;
11088;SDS011;5598;48.648;8.908;2022-12-20T10:02:11;4.87;;;3.67;;
11088;SDS011;5598;48.648;8.908;2022-12-20T10:04:41;3.40;;;2.50;;
11088;SDS011;5598;48.648;8.908;2022-12-20T10:07:13;4.33;;;3.47;;
11088;SDS011;5598;48.648;8.908;2022-12-20T10:09:53;1.43;;;1.33;;
11088;SDS011;5598;48.648;8.908;2022-12-20T10:12:31;2.80;;;0.90;;
11088;SDS011;5598;48.648;8.908;2022-12-20T10:15:12;8.00;;;6.33;;
11088;SDS011;5598;48.648;8.908;2022-12-20T10:17:45;4.87;;;2.50;;
11088;SDS011;5598;48.648;8.908;2022-12-20T10:23:12;5.43;;;1.53;;
11088;SDS011;5598;48.648;8.908;2022-12-20T10:25:48;4.37;;;3.50;;
11088;SDS011;5598;48.648;8.908;2022-12-20T10:28:16;2.50;;;1.60;;
11088;SDS011;5598;48.648;8.908;2022-12-20T10:30:45;5.50;;;2.93;;
11088;SDS011;5598;48.648;8.908;2022-12-20T10:33:17;5.33;;;2.47;;
11088;SDS011;5598;48.648;8.908;2022-12-20T10:35:47;2.17;;;1.90;;
11088;SDS011;5598;48.648;8.908;2022-12-20T10:38:16;6.03;;;2.93;;
11088;SDS011;5598;48.648;8.908;2022-12-20T10:40:45;5.17;;;2.83;;
11088;SDS011;5598;48.648;8.908;2022-12-20T10:43:14;3.57;;;2.57;;
11088;SDS011;5598;48.648;8.908;2022-12-20T10:45:43;8.00;;;3.87;;
11088;SDS011;5598;48.648;8.908;2022-12-20T10:48:25;4.93;;;2.87;;
11088;SDS011;5598;48.648;8.908;2022-12-20T10:50:57;2.80;;;2.40;;
11088;SDS011;5598;48.648;8.908;2022-12-20T10:53:25;5.87;;;3.73;;
11088;SDS011;5598;48.648;8.908;2022-12-20T10:55:53;1.83;;;1.60;;
11088;SDS011;5598;48.648;8.908;2022-12-20T10:58:34;6.07;;;3.87;;
11088;SDS011;5598;48.648;8.908;2022-12-20T11:01:03;4.87;;;2.57;;
11088;SDS011;5598;48.648;8.908;2022-12-20T11:03:41;4.37;;;2.83;;
11088;SDS011;5598;48.648;8.908;2022-12-20T11:06:23;1.23;;;1.13;;
11088;SDS011;5598;48.648;8.908;2022-12-20T11:08:52;8.80;;;2.93;;
11088;SDS011;5598;48.648;8.908;2022-12-20T11:11:20;3.70;;;2.17;;
11088;SDS011;5598;48.648;8.908;2022-12-20T11:13:49;3.20;;;1.57;;
11088;SDS011;5598;48.648;8.908;2022-12-20T11:19:17;8.50;;;3.63;;
11088;SDS011;5598;48.648;8.908;2022-12-20T11:21:58;7.90;;;2.67;;
11088;SDS011;5598;48.648;8.908;2022-12-20T11:24:32;3.50;;;2.90;;
11088;SDS011;5598;48.648;8.908;2022-12-20T11:27:06;5.03;;;2.73;;
11088;SDS011;5598;48.648;8.908;2022-12-20T11:29:52;5.47;;;2.63;;
11088;SDS011;5598;48.648;8.908;2022-12-20T11:33:09;0.30;;;0.30;;
11088;SDS011;5598;48.648;8.908;2022-12-20T11:35:47;1.13;;;0.87;;
11088;SDS011;5598;48.648;8.908;2022-12-20T11:38:21;0.10;;;0.10;;
11088;SDS011;5598;48.648;8.908;2022-12-20T11:41:03;0.50;;;0.50;;
11088;SDS011;5598;48.648;8.908;2022-12-20T11:43:41;0.20;;;0.17;;
11088;SDS011;5598;48.648;8.908;2022-12-20T11:46:25;0.10;;;0.10;;
11088;SDS011;5598;48.648;8.908;2022-12-20T11:49:02;0.27;;;0.27;;
11088;SDS011;5598;48.648;8.908;2022-12-20T11:51:46;0.60;;;0.50;;
11088;SDS011;5598;48.648;8.908;2022-12-20T11:54:16;0.00;;;0.00;;
11088;SDS011;5598;48.648;8.908;2022-12-20T11:56:47;0.07;;;0.07;;
11088;SDS011;5598;48.648;8.908;2022-12-20T11:59:17;0.00;;;0.00;;
11088;SDS011;5598;48.648;8.908;2022-12-20T12:01:50;1.40;;;1.27;;
11088;SDS011;5598;48.648;8.908;2022-12-20T12:04:26;2.00;;;1.90;;
11088;SDS011;5598;48.648;8.908;2022-12-20T12:06:57;0.00;;;0.00;;
11088;SDS011;5598;48.648;8.908;2022-12-20T12:09:28;0.77;;;0.10;;
11088;SDS011;5598;48.648;8.908;2022-12-20T12:12:01;0.00;;;0.00;;
11088;SDS011;5598;48.648;8.908;2022-12-20T12:14:32;0.00;;;0.00;;
11088;SDS011;5598;48.648;8.908;2022-12-20T12:17:10;0.00;;;0.00;;
11088;SDS011;5598;48.648;8.908;2022-12-20T12:19:45;0.00;;;0.00;;
11088;SDS011;5598;48.648;8.908;2022-12-20T12:22:15;0.00;;;0.00;;
11088;SDS011;5598;48.648;8.908;2022-12-20T12:24:48;0.20;;;0.20;;
11088;SDS011;5598;48.648;8.908;2022-12-20T12:27:23;0.23;;;0.23;;
11088;SDS011;5598;48.648;8.908;2022-12-20T12:29:52;0.00;;;0.00;;
11088;SDS011;5598;48.648;8.908;2022-12-20T12:32:22;0.00;;;0.00;;
11088;SDS011;5598;48.648;8.908;2022-12-20T12:35:00;1.20;;;1.10;;
11088;SDS011;5598;48.648;8.908;2022-12-20T12:37:47;0.77;;;0.40;;
11088;SDS011;5598;48.648;8.908;2022-12-20T12:40:45;0.10;;;0.10;;
11088;SDS011;5598;48.648;8.908;2022-12-20T12:43:32;0.30;;;0.30;;
11088;SDS011;5598;48.648;8.908;2022-12-20T12:46:10;0.27;;;0.27;;
11088;SDS011;5598;48.648;8.908;2022-12-20T12:48:41;0.00;;;0.00;;
11088;SDS011;5598;48.648;8.908;2022-12-20T12:51:13;0.47;;;0.47;;
11088;SDS011;5598;48.648;8.908;2022-12-20T12:53:48;0.10;;;0.10;;
11088;SDS011;5598;48.648;8.908;2022-12-20T12:56:34;0.00;;;0.00;;
11088;SDS011;5598;48.648;8.908;2022-12-20T13:02:24;0.00;;;0.00;;
11088;SDS011;5598;48.648;8.908;2022-12-20T13:05:33;0.00;;;0.00;;
11088;SDS011;5598;48.648;8.908;2022-12-20T13:08:02;0.00;;;0.00;;
11088;SDS011;5598;48.648;8.908;2022-12-20T13:10:56;0.10;;;0.10;;
11088;SDS011;5598;48.648;8.908;2022-12-20T13:13:26;0.10;;;0.10;;
11088;SDS011;5598;48.648;8.908;2022-12-20T13:16:09;0.00;;;0.00;;
11088;SDS011;5598;48.648;8.908;2022-12-20T13:18:38;0.03;;;0.03;;
11088;SDS011;5598;48.648;8.908;2022-12-20T13:21:39;0.20;;;0.20;;
11088;SDS011;5598;48.648;8.908;2022-12-20T13:27:20;0.30;;;0.20;;
11088;SDS011;5598;48.648;8.908;2022-12-20T13:32:58;0.10;;;0.07;;
11088;SDS011;5598;48.648;8.908;2022-12-20T13:35:56;0.40;;;0.23;;
11088;SDS011;5598;48.648;8.908;2022-12-20T13:38:38;1.03;;;0.57;;
11088;SDS011;5598;48.648;8.908;2022-12-20T13:41:29;0.00;;;0.00;;
11088;SDS011;5598;48.648;8.908;2022-12-20T13:44:01;0.00;;;0.00;;
11088;SDS011;5598;48.648;8.908;2022-12-20T13:46:53;0.00;;;0.00;;
11088;SDS011;5598;48.648;8.908;2022-12-20T13:49:26;0.07;;;0.07;;
11088;SDS011;5598;48.648;8.908;2022-12-20T13:52:19;0.20;;;0.20;;
11088;SDS011;5598;48.648;8.908;2022-12-20T13:54:51;0.10;;;0.10;;
11088;SDS011;5598;48.648;8.908;2022-12-20T13:57:23;0.07;;;0.07;;
11088;SDS011;5598;48.648;8.908;2022-12-20T13:59:54;0.00;;;0.00;;
11088;SDS011;5598;48.648;8.908;2022-12-20T14:02:25;1.40;;;0.73;;
11088;SDS011;5598;48.648;8.908;2022-12-20T14:04:55;0.10;;;0.10;;
11088;SDS011;5598;48.648;8.908;2022-12-20T14:07:24;0.00;;;0.00;;
11088;SDS011;5598;48.648;8.908;2022-12-20T14:09:55;0.00;;;0.00;;
11088;SDS011;5598;48.648;8.908;2022-12-20T14:12:25;0.30;;;0.30;;
11088;SDS011;5598;48.648;8.908;2022-12-20T14:14:53;0.00;;;0.00;;
11088;SDS011;5598;48.648;8.908;2022-12-20T14:17:22;0.00;;;0.00;;
11088;SDS011;5598;48.648;8.908;2022-12-20T14:20:11;3.70;;;0.53;;
11088;SDS011;5598;48.648;8.908;2022-12-20T14:22:40;0.00;;;0.00;;
11088;SDS011;5598;48.648;8.908;2022-12-20T14:25:13;0.10;;;0.10;;
11088;SDS011;5598;48.648;8.908;2022-12-20T14:27:44;0.70;;;0.70;;
11088;SDS011;5598;48.648;8.908;2022-12-20T14:30:24;1.83;;;1.73;;
11088;SDS011;5598;48.648;8.908;2022-12-20T14:32:57;0.00;;;0.00;;
11088;SDS011;5598;48.648;8.908;2022-12-20T14:35:24;0.10;;;0.10;;
11088;SDS011;5598;48.648;8.908;2022-12-20T14:37:52;0.00;;;0.00;;
11088;SDS011;5598;48.648;8.908;2022-12-20T14:40:20;0.03;;;0.03;;
11088;SDS011;5598;48.648;8.908;2022-12-20T14:42:49;0.10;;;0.10;;
11088;SDS011;5598;48.648;8.908;2022-12-20T14:45:18;0.40;;;0.30;;
11088;SDS011;5598;48.648;8.908;2022-12-20T14:47:53;4.27;;;3.23;;
11088;SDS011;5598;48.648;8.908;2022-12-20T14:50:27;0.10;;;0.10;;
11088;SDS011;5598;48.648;8.908;2022-12-20T14:52:56;2.23;;;1.27;;
11088;SDS011;5598;48.648;8.908;2022-12-20T14:55:24;0.10;;;0.10;;
11088;SDS011;5598;48.648;8.908;2022-12-20T14:57:57;0.00;;;0.00;;
11088;SDS011;5598;48.648;8.908;2022-12-20T15:00:24;1.10;;;1.10;;
11088;SDS011;5598;48.648;8.908;2022-12-20T15:02:57;0.57;;;0.30;;
11088;SDS011;5598;48.648;8.908;2022-12-20T15:05:45;0.10;;;0.10;;
11088;SDS011;5598;48.648;8.908;2022-12-20T15:08:15;0.17;;;0.17;;
11088;SDS011;5598;48.648;8.908;2022-12-20T15:10:46;0.93;;;0.80;;
11088;SDS011;5598;48.648;8.908;2022-12-20T15:13:20;0.30;;;0.30;;
11088;SDS011;5598;48.648;8.908;2022-12-20T15:15:50;0.00;;;0.00;;
11088;SDS011;5598;48.648;8.908;2022-12-20T15:18:17;0.00;;;0.00;;
11088;SDS011;5598;48.648;8.908;2022-12-20T15:20:47;0.70;;;0.70;;
11088;SDS011;5598;48.648;8.908;2022-12-20T15:23:19;0.10;;;0.10;;
11088;SDS011;5598;48.648;8.908;2022-12-20T15:25:47;0.20;;;0.20;;
11088;SDS011;5598;48.648;8.908;2022-12-20T15:28:15;0.37;;;0.33;;
11088;SDS011;5598;48.648;8.908;2022-12-20T15:30:45;1.77;;;1.00;;
11088;SDS011;5598;48.648;8.908;2022-12-20T15:33:14;2.07;;;0.77;;
11088;SDS011;5598;48.648;8.908;2022-12-20T15:35:42;0.00;;;0.00;;
11088;SDS011;5598;48.648;8.908;2022-12-20T15:38:13;0.00;;;0.00;;
11088;SDS011;5598;48.648;8.908;2022-12-20T15:40:43;0.10;;;0.10;;
11088;SDS011;5598;48.648;8.908;2022-12-20T15:43:11;0.10;;;0.10;;